AirNav   Pilot Hours Calculator
 
 1618 users online  

WT44 Michair Airport
Cathlamet, Washington, USA

GOING TO CATHLAMET?


FAA INFORMATION EFFECTIVE 04 NOVEMBER 2021

Location

FAA Identifier: WT44
Lat/Long: 46-10-38.4000N 123-23-06.0000W
46-10.640000N 123-23.100000W
46.1773333,-123.3850000
(estimated)
Elevation: 13 ft. / 4 m
From city: 3 miles SE of CATHLAMET, WA
Time zone: UTC -7 (UTC -8 during Standard Time)
Zip code: 98612

Airport Operations

Airport use: Private use. Permission required prior to landing
Activation date: 10/2007
Control tower: no
ARTCC: SEATTLE CENTER
FSS: MC MINNVILLE FLIGHT SERVICE STATION
Attendance: UNATNDD
Wind indicator: yes
Segmented circle: no

Nearby radio navigation aids

VOR radial/distance  VOR name  Freq  Var
ASTr072/20.6ASTORIA VOR/DME114.0015E

 
NDB name  Hdg/Dist  Freq  Var  ID
BANKS321/35.735616EPND .--. -. -..

Airport Services

Runway Information

Runway 7/25

Dimensions: 1300 x 50 ft. / 396 x 15 m
Surface: turf
RUNWAY 7  RUNWAY 25
Traffic pattern: leftleft
Obstructions: 45 ft. pline, 200 ft. from runwaynone

Airport Ownership and Management from official FAA records

Ownership: Privately-owned
Owner: DON R. MEANS
10 CRISTA VISTA DRIVE
CATHLAMET, WA 98612
Phone 360-560-4234
Manager: DON R. MEANS
10 CRISTA VISTA DRIVE
CATHLAMET, WA 98612
Phone 360-560-4234

Airport Operational Statistics

Aircraft based on the field: 1
Single engine airplanes: 1
    

Additional Remarks

FOR CD CTC SEATTLE ARTCC AT 253-351-3694.

Instrument Procedures

There are no published instrument procedures at WT44.

Some nearby airports with instrument procedures:

KKLS - Southwest Washington Regional Airport (21 nm E)
KAST - Astoria Regional Airport (21 nm W)
KTDO - Ed Carlson Memorial Field - South Lewis County Airport (30 nm NE)
KSPB - Scappoose Airport (33 nm SE)
KCLS - Chehalis-Centralia Airport (34 nm NE)
 
Loc | Ops | Rwys | IFR | FBO | Links
Com | Nav | Svcs | Stats | Notes
Aerial photo
No photo
 
Sectional chart

 
Airport distance calculator
Flying to Michair Airport? Find the distance to fly.

From to WT44

Sunrise and sunset
Times for 29-Nov-2021
 Local
(UTC-8)
 Zulu
(UTC)
Morning civil twilight07:0115:01
Sunrise07:3415:34
Sunset16:2900:29
Evening civil twilight17:0301:03

Current date and time
Zulu (UTC)  30-Nov-2021 00:30:33
Local (UTC-8)  29-Nov-2021 16:30:33
 
METAR
KKLS 
20nm E 
292356Z AUTO 15004KT 10SM OVC016 13/11 A3028 RMK AO2 SLP257 T01330111 10139 20122 55005
KAST 
21nm W 
292355Z AUTO 33004KT 9SM OVC005 13/12 A3023 RMK AO2 SLP237 T01280117 10139 20117 55004
KSPB 
33nm SE 
300020Z AUTO 00000KT 10SM OVC009 14/11 A3028 RMK AO2 T01390111
KCLS 
34nm NE 
300015Z AUTO 19004KT 10SM BKN034 OVC041 14/12 A3025 RMK AO2
TAF
KAST 
21nm W 
291906Z 2919/3018 20006KT P6SM OVC007 FM292200 VRB03KT P6SM SCT010 BKN025 BKN060 FM301000 12005KT P6SM -RA BKN025 OVC050 FM301500 19004KT 5SM -RA BR BKN012 OVC025
NOTAMs
Click for the latest NOTAMs
NOTAMs are issued by the DoD/FAA and will open in a separate window not controlled by AirNav.

 

 
 

Would you like to see your business listed on this page?

 If your business provides an interesting product or service to pilots, flight crews, aircraft, or users of the Michair Airport, you should consider listing it here.  To start the listing process, click on the button below
 
Add a business
 

Other Pages about Michair Airport

Update a link
 
Copyright © AirNav, LLC. All rights reserved. Privacy Policy  Contact